Time;durP1;ratioP1;P1;durP2;ratioP2;P2;SDS_P1;SDS_P2;PMS_P1;PMS_P2;Temp;Humidity;BMP_temperature;BMP_pressure;BME280_temperature;BME280_humidity;BME280_pressure;Samples;Min_cycle;Max_cycle;Signal;HPM_P1;HPM_P2
2023/09/30 00:00:33;;;;;;;13.05;5.90;;;15.20;99.90;;;;;;4963686;28;20226;-81
2023/09/30 00:03:01;;;;;;;13.55;5.50;;;15.20;99.90;;;;;;4962848;28;20205;-81
2023/09/30 00:05:28;;;;;;;13.13;5.25;;;15.10;99.90;;;;;;4960418;28;20594;-81
2023/09/30 00:07:55;;;;;;;11.07;4.50;;;15.20;99.90;;;;;;4965862;28;20212;-81
2023/09/30 00:10:23;;;;;;;10.07;4.57;;;15.40;99.90;;;;;;4967817;28;20212;-81
2023/09/30 00:12:50;;;;;;;11.57;5.38;;;15.40;99.90;;;;;;4961111;28;20204;-81
2023/09/30 00:15:18;;;;;;;16.73;4.93;;;15.40;99.90;;;;;;4962317;28;20225;-81
2023/09/30 00:17:47;;;;;;;13.98;4.75;;;15.40;99.90;;;;;;4962774;28;20209;-81
2023/09/30 00:20:14;;;;;;;11.32;4.97;;;15.50;99.90;;;;;;4968455;28;20574;-81
2023/09/30 00:22:42;;;;;;;12.30;4.82;;;15.40;99.90;;;;;;4968678;28;20216;-81
2023/09/30 00:25:10;;;;;;;12.00;5.32;;;15.60;99.90;;;;;;4970850;28;20211;-81
2023/09/30 00:27:37;;;;;;;11.57;4.75;;;15.60;99.90;;;;;;4959397;28;20206;-81
2023/09/30 00:30:06;;;;;;;12.43;5.40;;;15.70;99.90;;;;;;4962927;28;20655;-81
2023/09/30 00:32:34;;;;;;;11.68;5.32;;;15.60;99.90;;;;;;4962868;28;20662;-81
2023/09/30 00:35:04;;;;;;;10.93;5.32;;;15.60;99.90;;;;;;4965027;28;20366;-81
2023/09/30 00:37:32;;;;;;;13.13;5.38;;;15.60;99.90;;;;;;4967802;28;20212;-81
2023/09/30 00:39:59;;;;;;;11.05;5.65;;;15.50;99.90;;;;;;4965848;28;20217;-81
2023/09/30 00:42:27;;;;;;;14.57;5.57;;;15.50;99.90;;;;;;4970836;28;20225;-81
2023/09/30 00:44:54;;;;;;;11.38;5.63;;;15.50;99.90;;;;;;4970579;28;20228;-81
2023/09/30 00:47:23;;;;;;;12.05;4.88;;;15.40;99.90;;;;;;4963148;28;20213;-81
2023/09/30 00:49:51;;;;;;;17.65;6.38;;;15.50;99.90;;;;;;4963976;28;20208;-81
2023/09/30 00:52:20;;;;;;;14.57;6.15;;;15.60;99.90;;;;;;5000218;28;20221;-81
2023/09/30 00:54:49;;;;;;;13.07;6.07;;;15.50;99.90;;;;;;4965387;28;20210;-81
2023/09/30 00:57:18;;;;;;;12.15;5.97;;;15.60;99.90;;;;;;4964822;28;20216;-81
2023/09/30 00:59:46;;;;;;;10.00;5.38;;;15.60;99.90;;;;;;4956530;28;20201;-81
2023/09/30 01:02:13;;;;;;;11.52;4.82;;;15.60;99.90;;;;;;4971158;28;20228;-81
2023/09/30 01:04:41;;;;;;;15.73;5.75;;;15.60;99.90;;;;;;4963281;28;20197;-81
2023/09/30 01:07:11;;;;;;;13.63;5.88;;;15.50;99.90;;;;;;4965778;28;20205;-81
2023/09/30 01:09:39;;;;;;;14.23;6.15;;;15.40;99.90;;;;;;4962246;28;20205;-81
2023/09/30 01:12:08;;;;;;;13.98;5.93;;;15.10;99.90;;;;;;4961874;28;20222;-81
2023/09/30 01:14:38;;;;;;;12.40;5.95;;;15.00;99.90;;;;;;4965135;28;20221;-81
2023/09/30 01:17:08;;;;;;;16.25;6.78;;;15.00;99.90;;;;;;4968365;28;20193;-81
2023/09/30 01:19:36;;;;;;;14.15;6.18;;;15.10;99.90;;;;;;4958553;28;20210;-81
2023/09/30 01:22:05;;;;;;;12.27;5.30;;;15.30;99.90;;;;;;4969486;28;20226;-82
2023/09/30 01:24:40;;;;;;;11.90;5.88;;;15.40;99.90;;;;;;4964590;28;20200;-81
2023/09/30 01:27:08;;;;;;;12.48;5.82;;;15.40;99.90;;;;;;4959351;28;20189;-81
2023/09/30 01:29:38;;;;;;;13.05;6.18;;;15.50;99.90;;;;;;4959538;28;20210;-81
2023/09/30 01:32:07;;;;;;;11.93;5.45;;;15.50;99.90;;;;;;4958534;28;20221;-81
2023/09/30 01:34:35;;;;;;;11.55;5.55;;;15.50;99.90;;;;;;4965963;28;20229;-81
2023/09/30 01:37:05;;;;;;;11.07;5.20;;;15.40;99.90;;;;;;4965708;28;20198;-81
2023/09/30 01:39:32;;;;;;;13.57;5.63;;;15.20;99.90;;;;;;4965928;28;20204;-82
2023/09/30 01:42:07;;;;;;;11.10;5.43;;;15.30;99.90;;;;;;4968400;28;20218;-81
2023/09/30 01:44:35;;;;;;;12.05;5.32;;;15.30;99.90;;;;;;4964346;28;20562;-81
2023/09/30 01:47:02;;;;;;;15.98;6.63;;;15.20;99.90;;;;;;4955354;28;20214;-81
2023/09/30 01:49:30;;;;;;;13.00;5.90;;;15.10;99.90;;;;;;4964386;28;20201;-82
2023/09/30 01:51:58;;;;;;;13.27;5.78;;;14.90;99.90;;;;;;4955421;28;20683;-82
2023/09/30 01:54:28;;;;;;;13.60;5.53;;;15.00;99.90;;;;;;4962457;28;20217;-81
2023/09/30 01:56:56;;;;;;;11.48;5.57;;;15.00;99.90;;;;;;4957242;28;20190;-81
2023/09/30 01:59:24;;;;;;;12.77;5.40;;;14.90;99.90;;;;;;4955756;28;20212;-81
2023/09/30 02:01:52;;;;;;;17.13;6.03;;;15.10;99.90;;;;;;4963043;28;20729;-81
2023/09/30 02:04:19;;;;;;;14.13;5.80;;;15.20;99.90;;;;;;4964408;28;20216;-81
2023/09/30 02:06:48;;;;;;;12.75;5.57;;;15.30;99.90;;;;;;4966692;28;20205;-81
2023/09/30 02:09:16;;;;;;;14.52;5.65;;;15.20;99.90;;;;;;4965785;28;20201;-81
2023/09/30 02:11:45;;;;;;;16.98;6.43;;;15.00;99.90;;;;;;4965290;28;20232;-81
2023/09/30 02:14:12;;;;;;;14.90;5.72;;;14.80;99.90;;;;;;4961361;28;20201;-81
2023/09/30 02:16:41;;;;;;;15.05;5.47;;;14.80;99.90;;;;;;4958125;28;20201;-81
2023/09/30 02:19:10;;;;;;;11.50;5.55;;;14.70;99.90;;;;;;4963965;28;20210;-81
2023/09/30 02:21:37;;;;;;;12.90;5.82;;;14.70;99.90;;;;;;4959734;28;20244;-81
2023/09/30 02:24:06;;;;;;;12.45;5.53;;;14.70;99.90;;;;;;4962744;28;20212;-81
2023/09/30 02:26:34;;;;;;;12.75;4.93;;;14.60;99.90;;;;;;4959274;28;20204;-81
2023/09/30 02:29:02;;;;;;;9.73;4.72;;;14.80;99.90;;;;;;4971059;28;20208;-81
2023/09/30 02:31:30;;;;;;;11.55;5.30;;;15.00;99.90;;;;;;4966958;28;20220;-81
2023/09/30 02:33:57;;;;;;;11.45;4.82;;;15.10;99.90;;;;;;4967550;28;20671;-81
2023/09/30 02:36:27;;;;;;;8.75;4.50;;;15.20;99.90;;;;;;4966184;28;20221;-81
2023/09/30 02:38:54;;;;;;;12.38;5.68;;;15.20;99.90;;;;;;4962839;28;20695;-81
2023/09/30 02:41:22;;;;;;;9.65;5.18;;;15.10;99.90;;;;;;4967662;28;20243;-81
2023/09/30 02:43:50;;;;;;;11.43;4.63;;;15.10;99.90;;;;;;4963608;28;20208;-81
2023/09/30 02:46:19;;;;;;;12.40;5.28;;;15.00;99.90;;;;;;4962766;28;20206;-81
2023/09/30 02:48:47;;;;;;;10.07;5.65;;;15.00;99.90;;;;;;4961976;28;20205;-81
2023/09/30 02:51:15;;;;;;;15.05;6.07;;;15.10;99.90;;;;;;4962459;28;20315;-81
2023/09/30 02:53:42;;;;;;;11.05;4.60;;;15.10;99.90;;;;;;4959280;28;20212;-81
2023/09/30 02:56:10;;;;;;;12.07;4.95;;;15.00;99.90;;;;;;4962016;28;20575;-81
2023/09/30 02:58:40;;;;;;;18.38;5.97;;;14.80;99.90;;;;;;4971255;28;20224;-81
2023/09/30 03:01:09;;;;;;;12.32;5.10;;;14.60;99.90;;;;;;4955152;28;20229;-81
2023/09/30 03:03:39;;;;;;;13.82;5.28;;;14.50;99.90;;;;;;4965642;28;20198;-81
2023/09/30 03:06:07;;;;;;;13.27;4.72;;;14.50;99.90;;;;;;4958279;28;20198;-81
2023/09/30 03:08:35;;;;;;;13.20;4.97;;;14.50;99.90;;;;;;4963961;28;20663;-81
2023/09/30 03:11:04;;;;;;;11.55;4.85;;;14.50;99.90;;;;;;4964732;28;20259;-81
2023/09/30 03:13:31;;;;;;;12.98;4.75;;;14.70;99.90;;;;;;4964406;28;20210;-81
2023/09/30 03:15:59;;;;;;;16.10;5.05;;;14.50;99.90;;;;;;4967725;28;20215;-81
2023/09/30 03:18:28;;;;;;;12.65;5.00;;;14.40;99.90;;;;;;4963076;28;20215;-81
2023/09/30 03:21:00;;;;;;;15.27;5.40;;;14.50;99.90;;;;;;4958019;28;20232;-81
2023/09/30 03:23:30;;;;;;;15.57;5.05;;;14.40;99.90;;;;;;4960877;28;20209;-81
2023/09/30 03:25:58;;;;;;;13.48;5.38;;;14.70;99.90;;;;;;4963279;28;20212;-81
2023/09/30 03:28:26;;;;;;;10.98;4.70;;;14.70;99.90;;;;;;4966481;28;20205;-81
2023/09/30 03:30:53;;;;;;;13.07;5.32;;;14.50;99.90;;;;;;4968507;28;20218;-81
2023/09/30 03:33:21;;;;;;;12.77;4.78;;;14.50;99.90;;;;;;4962167;28;20201;-81
2023/09/30 03:35:49;;;;;;;10.73;4.65;;;14.60;99.90;;;;;;4958488;28;20209;-81
2023/09/30 03:38:19;;;;;;;11.32;5.43;;;14.50;99.90;;;;;;4960218;28;20201;-81
2023/09/30 03:40:47;;;;;;;14.32;5.88;;;14.50;99.90;;;;;;4969578;28;20229;-81
2023/09/30 03:43:15;;;;;;;11.77;5.53;;;14.30;99.90;;;;;;4966100;28;20221;-81
2023/09/30 03:45:42;;;;;;;13.40;5.70;;;14.30;99.90;;;;;;4962924;28;20208;-81
2023/09/30 03:48:10;;;;;;;11.73;5.35;;;14.40;99.90;;;;;;4960000;28;20198;-81
2023/09/30 03:50:37;;;;;;;14.00;5.20;;;14.30;99.90;;;;;;4964674;28;20221;-81
2023/09/30 03:53:07;;;;;;;10.48;5.15;;;14.20;99.90;;;;;;4969121;28;20211;-81
2023/09/30 03:55:36;;;;;;;13.57;5.05;;;14.20;99.90;;;;;;4971244;28;20240;-81
2023/09/30 03:58:04;;;;;;;13.35;4.78;;;14.20;99.90;;;;;;4972543;28;20212;-81
2023/09/30 04:00:32;;;;;;;12.32;4.53;;;14.20;99.90;;;;;;4969271;28;20210;-81
2023/09/30 04:02:59;;;;;;;9.10;4.50;;;14.40;99.90;;;;;;4967508;28;20208;-81
2023/09/30 04:05:29;;;;;;;11.30;5.10;;;14.30;99.90;;;;;;4965104;28;20197;-81
2023/09/30 04:07:57;;;;;;;13.20;5.03;;;14.30;99.90;;;;;;4966738;28;20213;-81
2023/09/30 04:10:25;;;;;;;9.68;3.95;;;14.20;99.90;;;;;;4969121;28;20697;-81
2023/09/30 04:12:54;;;;;;;13.48;5.25;;;14.30;99.90;;;;;;4963060;28;20206;-81
2023/09/30 04:15:21;;;;;;;18.67;5.35;;;14.20;99.90;;;;;;4965821;28;20220;-81
2023/09/30 04:18:20;;;;;;;13.27;5.07;;;14.20;99.90;;;;;;4955546;28;20206;-81
2023/09/30 04:20:47;;;;;;;10.45;4.32;;;14.10;99.90;;;;;;4957757;28;20222;-81
2023/09/30 04:23:15;;;;;;;12.23;4.80;;;14.20;99.90;;;;;;4963881;28;20213;-80
2023/09/30 04:25:43;;;;;;;9.50;4.55;;;14.30;99.90;;;;;;4970965;28;20224;-80
2023/09/30 04:28:12;;;;;;;8.15;4.00;;;14.30;99.90;;;;;;4966075;28;20202;-80
2023/09/30 04:30:40;;;;;;;13.40;4.90;;;14.20;99.90;;;;;;4968772;28;20212;-80
2023/09/30 04:33:08;;;;;;;13.48;4.25;;;14.20;99.90;;;;;;4960912;28;20206;-80
2023/09/30 04:35:36;;;;;;;11.45;4.10;;;13.90;99.90;;;;;;4961369;28;20214;-80
2023/09/30 04:38:04;;;;;;;8.48;4.20;;;14.10;99.90;;;;;;4965795;28;20216;-80
2023/09/30 04:40:33;;;;;;;11.63;4.20;;;14.10;99.90;;;;;;4963014;28;20209;-80
2023/09/30 04:43:01;;;;;;;8.73;4.75;;;14.20;99.90;;;;;;4966512;28;20201;-80
2023/09/30 04:45:30;;;;;;;14.18;4.78;;;14.20;99.90;;;;;;4962697;28;20198;-80
2023/09/30 04:47:57;;;;;;;12.95;4.25;;;14.30;99.90;;;;;;4959316;28;20205;-80
2023/09/30 04:50:24;;;;;;;9.10;4.25;;;14.30;99.90;;;;;;4965300;28;20221;-80
2023/09/30 04:52:53;;;;;;;11.70;3.75;;;14.20;99.90;;;;;;4969140;28;20204;-80
2023/09/30 04:55:21;;;;;;;12.35;4.38;;;14.20;99.90;;;;;;4960532;28;20209;-81
2023/09/30 04:57:49;;;;;;;11.20;5.20;;;14.00;99.90;;;;;;4968491;28;20212;-80
2023/09/30 05:00:18;;;;;;;14.45;4.65;;;13.90;99.90;;;;;;4961314;28;20201;-80
2023/09/30 05:02:47;;;;;;;10.65;4.68;;;13.90;99.90;;;;;;4981247;28;20209;-80
2023/09/30 05:05:15;;;;;;;9.23;4.72;;;13.90;99.90;;;;;;4967815;28;20209;-80
2023/09/30 05:07:42;;;;;;;9.15;4.30;;;13.90;99.90;;;;;;4965837;28;20201;-80
2023/09/30 05:10:13;;;;;;;12.02;4.25;;;13.80;99.90;;;;;;4969609;28;20205;-80
2023/09/30 05:12:45;;;;;;;12.07;4.50;;;13.90;99.90;;;;;;4969658;28;20204;-80
2023/09/30 05:15:15;;;;;;;10.02;4.55;;;14.00;99.90;;;;;;4955757;28;20204;-80
2023/09/30 05:17:44;;;;;;;15.15;5.07;;;14.00;99.90;;;;;;4963629;28;20545;-80
2023/09/30 05:20:13;;;;;;;13.75;4.85;;;14.00;99.90;;;;;;4958157;28;20209;-80
2023/09/30 05:22:43;;;;;;;9.30;4.57;;;13.80;99.90;;;;;;4960811;28;20216;-80
2023/09/30 05:25:10;;;;;;;7.65;4.00;;;13.80;99.90;;;;;;4961990;28;20194;-80
2023/09/30 05:27:38;;;;;;;11.95;4.35;;;13.80;99.90;;;;;;4963183;28;20213;-80
2023/09/30 05:30:07;;;;;;;12.60;4.30;;;13.80;99.90;;;;;;4960186;28;20205;-80
2023/09/30 05:32:38;;;;;;;10.80;4.28;;;13.80;99.90;;;;;;4959039;28;20225;-81
2023/09/30 05:35:12;;;;;;;16.42;5.82;;;13.90;99.90;;;;;;4965303;28;20667;-81
2023/09/30 05:37:42;;;;;;;16.52;4.63;;;13.80;99.90;;;;;;4965316;28;20216;-81
2023/09/30 05:40:20;;;;;;;14.15;5.25;;;13.80;99.90;;;;;;4954022;28;20686;-83
2023/09/30 05:42:47;;;;;;;13.75;5.03;;;13.60;99.90;;;;;;4963812;28;20205;-81
2023/09/30 05:45:19;;;;;;;11.63;5.75;;;13.60;99.90;;;;;;4957284;28;20217;-82
2023/09/30 05:48:03;;;;;;;11.63;5.55;;;13.70;99.90;;;;;;4962891;28;20659;-82
2023/09/30 05:50:34;;;;;;;11.52;5.00;;;13.70;99.90;;;;;;4966417;28;20204;-82
2023/09/30 05:53:04;;;;;;;17.13;6.05;;;13.60;99.90;;;;;;4964541;28;20194;-82
2023/09/30 05:55:32;;;;;;;11.45;5.63;;;13.80;99.90;;;;;;4961029;28;20201;-82
2023/09/30 05:58:01;;;;;;;14.15;5.93;;;13.60;99.90;;;;;;4960944;28;20213;-82
2023/09/30 06:00:41;;;;;;;12.05;6.25;;;13.70;99.90;;;;;;4959993;28;20204;-81
2023/09/30 06:03:22;;;;;;;13.60;5.95;;;13.80;99.90;;;;;;4959865;28;20205;-81
2023/09/30 06:05:49;;;;;;;12.52;6.53;;;13.80;99.90;;;;;;4963826;28;20189;-81
2023/09/30 06:08:22;;;;;;;13.55;6.55;;;13.70;99.90;;;;;;4959561;28;20209;-82
2023/09/30 06:10:54;;;;;;;16.48;7.00;;;13.80;99.90;;;;;;4960843;28;20221;-81
2023/09/30 06:13:23;;;;;;;17.80;6.85;;;14.00;99.90;;;;;;4956318;28;20212;-81
2023/09/30 06:15:52;;;;;;;13.52;6.25;;;13.90;99.90;;;;;;4973602;28;20198;-82
2023/09/30 06:18:21;;;;;;;12.77;6.40;;;14.00;99.90;;;;;;4951528;28;20218;-81
2023/09/30 06:20:50;;;;;;;16.77;6.75;;;14.00;99.90;;;;;;4957117;28;20237;-81
2023/09/30 06:23:32;;;;;;;15.88;6.68;;;14.00;99.90;;;;;;4958356;28;20205;-82
2023/09/30 06:26:02;;;;;;;14.43;6.38;;;14.00;99.90;;;;;;4969615;28;20215;-82
2023/09/30 06:28:30;;;;;;;18.10;7.65;;;14.00;99.90;;;;;;4954443;28;20213;-80
2023/09/30 06:30:58;;;;;;;18.80;7.28;;;14.10;99.90;;;;;;4953674;28;20218;-81
2023/09/30 06:33:29;;;;;;;14.15;6.45;;;14.10;99.90;;;;;;4950525;28;20205;-81
2023/09/30 06:35:56;;;;;;;13.55;6.97;;;14.10;99.90;;;;;;4961367;28;20212;-81
2023/09/30 06:38:24;;;;;;;14.10;6.47;;;14.20;99.90;;;;;;4959379;28;20235;-80
2023/09/30 06:40:53;;;;;;;14.32;7.20;;;14.20;99.90;;;;;;4961292;28;20226;-80
2023/09/30 06:43:21;;;;;;;15.57;7.45;;;14.40;99.90;;;;;;4963467;28;20217;-81
2023/09/30 06:45:48;;;;;;;19.15;7.22;;;14.40;99.90;;;;;;4960558;28;20201;-81
2023/09/30 06:48:17;;;;;;;20.17;7.22;;;14.30;99.90;;;;;;4980381;28;20208;-79
2023/09/30 06:50:45;;;;;;;13.07;6.53;;;14.50;99.90;;;;;;4962290;28;20307;-81
2023/09/30 06:53:13;;;;;;;16.65;7.22;;;14.50;99.90;;;;;;4962127;28;20714;-81
2023/09/30 06:55:41;;;;;;;12.63;6.65;;;14.60;99.90;;;;;;4970089;28;20660;-81
2023/09/30 06:58:27;;;;;;;22.88;6.93;;;14.80;99.90;;;;;;4967217;28;20584;-83
2023/09/30 07:00:54;;;;;;;11.80;6.07;;;14.80;99.90;;;;;;4960258;28;20227;-80
2023/09/30 07:03:22;;;;;;;15.55;6.50;;;14.90;99.90;;;;;;4987208;28;20209;-82
2023/09/30 07:05:50;;;;;;;11.10;6.30;;;14.80;99.90;;;;;;4958980;28;20201;-82
2023/09/30 07:08:18;;;;;;;16.38;7.28;;;14.90;99.90;;;;;;4958636;28;20205;-82
2023/09/30 07:10:46;;;;;;;12.70;5.93;;;14.90;99.90;;;;;;4958486;28;20593;-82
2023/09/30 07:13:13;;;;;;;15.63;6.55;;;14.90;99.90;;;;;;4958248;28;20202;-82
2023/09/30 07:15:42;;;;;;;13.13;6.50;;;15.00;99.90;;;;;;4969422;28;20279;-82
2023/09/30 07:18:09;;;;;;;11.38;6.18;;;14.90;99.90;;;;;;4963363;28;20589;-82
2023/09/30 07:20:37;;;;;;;10.45;6.13;;;15.00;99.90;;;;;;4953733;28;20241;-81
2023/09/30 07:23:05;;;;;;;16.05;7.55;;;15.10;99.90;;;;;;4959616;28;20202;-81
2023/09/30 07:25:32;;;;;;;10.25;5.72;;;15.10;99.90;;;;;;4961059;28;20213;-81
2023/09/30 07:28:00;;;;;;;15.13;6.95;;;15.10;99.90;;;;;;4955886;28;20198;-81
2023/09/30 07:30:28;;;;;;;14.95;7.00;;;15.20;99.90;;;;;;4958093;28;20206;-82
2023/09/30 07:32:57;;;;;;;10.38;5.65;;;15.20;99.90;;;;;;4956189;28;20193;-80
2023/09/30 07:35:24;;;;;;;13.68;5.95;;;15.20;99.90;;;;;;4964572;28;20560;-81
2023/09/30 07:37:53;;;;;;;13.57;5.82;;;15.30;99.90;;;;;;4960366;28;20217;-80
2023/09/30 07:40:21;;;;;;;13.65;6.38;;;15.70;99.90;;;;;;4953460;28;20213;-80
2023/09/30 07:42:49;;;;;;;14.93;6.65;;;15.40;99.90;;;;;;4955550;28;20194;-81
2023/09/30 07:45:17;;;;;;;13.57;5.88;;;15.50;99.90;;;;;;4965308;28;20210;-80
2023/09/30 07:47:46;;;;;;;12.38;5.35;;;15.50;99.90;;;;;;4966685;28;20197;-81
2023/09/30 07:50:15;;;;;;;13.48;5.78;;;15.60;99.90;;;;;;4965152;28;20206;-80
2023/09/30 07:52:42;;;;;;;11.85;5.78;;;15.60;99.90;;;;;;4953922;28;20202;-80
2023/09/30 07:55:10;;;;;;;11.25;5.65;;;15.70;99.90;;;;;;4961402;28;20202;-81
2023/09/30 07:57:41;;;;;;;14.57;5.40;;;15.70;99.90;;;;;;4968585;28;20690;-81
2023/09/30 08:00:09;;;;;;;13.07;5.72;;;15.70;99.90;;;;;;4959841;28;20694;-82
2023/09/30 08:02:37;;;;;;;10.82;6.25;;;15.80;99.90;;;;;;4954829;28;20233;-81
2023/09/30 08:05:06;;;;;;;13.57;5.70;;;15.70;99.90;;;;;;4957912;28;20205;-81
2023/09/30 08:07:35;;;;;;;13.25;6.35;;;15.70;99.90;;;;;;4965229;28;20186;-81
2023/09/30 08:10:04;;;;;;;13.75;5.82;;;15.70;99.90;;;;;;4962816;28;20279;-81
2023/09/30 08:12:45;;;;;;;11.55;5.50;;;15.80;99.90;;;;;;4961920;28;20687;-81
2023/09/30 08:15:16;;;;;;;11.25;5.65;;;15.80;99.90;;;;;;4963090;28;20193;-81
2023/09/30 08:17:44;;;;;;;12.10;5.88;;;15.80;99.90;;;;;;4965545;28;20221;-81
2023/09/30 08:20:13;;;;;;;12.95;5.07;;;15.90;99.90;;;;;;4952488;28;20583;-79
2023/09/30 08:22:42;;;;;;;11.38;5.30;;;15.90;99.90;;;;;;4964375;28;20581;-79
2023/09/30 08:25:11;;;;;;;11.57;5.00;;;15.90;99.90;;;;;;4961428;28;20225;-79
2023/09/30 08:27:39;;;;;;;12.65;5.57;;;15.90;99.90;;;;;;4960711;28;20205;-79
2023/09/30 08:30:07;;;;;;;11.30;6.55;;;15.80;99.90;;;;;;4957564;28;20206;-79
2023/09/30 08:32:36;;;;;;;10.55;5.68;;;15.80;99.90;;;;;;4957722;28;20229;-79
2023/09/30 08:35:04;;;;;;;11.32;5.35;;;15.90;99.90;;;;;;4951910;28;20213;-79
2023/09/30 08:37:32;;;;;;;12.07;6.53;;;16.10;99.90;;;;;;4963206;28;20221;-80
2023/09/30 08:40:04;;;;;;;11.88;5.80;;;16.10;99.90;;;;;;4963960;28;20204;-80
2023/09/30 08:42:34;;;;;;;9.50;5.68;;;16.10;99.90;;;;;;4956042;28;20218;-80
2023/09/30 08:45:06;;;;;;;11.20;5.10;;;16.20;99.90;;;;;;4958514;28;20202;-80
2023/09/30 08:47:45;;;;;;;9.68;5.18;;;16.20;99.90;;;;;;4957180;28;20206;-80
2023/09/30 08:50:14;;;;;;;10.40;5.35;;;16.20;99.90;;;;;;4960479;28;20198;-79
2023/09/30 08:52:43;;;;;;;8.27;4.43;;;16.20;99.90;;;;;;4954540;28;20210;-80
2023/09/30 08:55:13;;;;;;;10.95;5.55;;;16.30;99.90;;;;;;4952492;28;20216;-80
2023/09/30 08:57:42;;;;;;;9.68;4.97;;;16.40;99.90;;;;;;4957641;28;20217;-80
2023/09/30 09:00:28;;;;;;;10.75;5.30;;;16.30;99.90;;;;;;4960361;28;20209;-80
2023/09/30 09:02:57;;;;;;;9.70;4.65;;;16.30;99.90;;;;;;4951839;28;20599;-80
2023/09/30 09:05:27;;;;;;;11.07;5.68;;;16.40;99.90;;;;;;4968234;28;20205;-80
2023/09/30 09:08:03;;;;;;;10.40;5.05;;;16.50;99.90;;;;;;4957224;28;20205;-80
2023/09/30 09:10:31;;;;;;;11.93;4.55;;;16.60;99.90;;;;;;4952401;28;20209;-80
2023/09/30 09:12:59;;;;;;;9.00;4.40;;;16.70;99.90;;;;;;4965983;28;20197;-80
2023/09/30 09:15:29;;;;;;;9.10;4.07;;;16.70;99.90;;;;;;4960729;28;20210;-80
2023/09/30 09:17:56;;;;;;;8.80;4.38;;;16.90;99.90;;;;;;4968127;28;20233;-80
2023/09/30 09:20:25;;;;;;;7.13;4.18;;;16.80;99.90;;;;;;4956866;28;20209;-80
2023/09/30 09:22:55;;;;;;;7.22;3.65;;;16.90;99.90;;;;;;4956221;28;20218;-80
2023/09/30 09:25:23;;;;;;;9.82;4.43;;;16.90;99.90;;;;;;4963402;28;20213;-80
2023/09/30 09:27:53;;;;;;;10.40;3.95;;;16.90;99.90;;;;;;4953271;28;20202;-80
2023/09/30 09:30:22;;;;;;;9.82;4.15;;;16.80;99.90;;;;;;4959186;28;20214;-80
2023/09/30 09:33:04;;;;;;;7.53;4.50;;;16.90;99.90;;;;;;4960348;28;20213;-80
2023/09/30 09:35:33;;;;;;;8.55;3.92;;;17.00;99.90;;;;;;4952751;28;20220;-80
2023/09/30 09:38:02;;;;;;;8.98;3.80;;;17.10;99.90;;;;;;4961470;28;20221;-80
2023/09/30 09:40:31;;;;;;;9.07;4.30;;;17.20;99.90;;;;;;4970901;28;20205;-80
2023/09/30 09:43:04;;;;;;;9.88;3.47;;;17.20;99.90;;;;;;4964671;28;20201;-80
2023/09/30 09:45:33;;;;;;;6.75;3.40;;;17.40;99.90;;;;;;4968575;28;20196;-80
2023/09/30 09:48:02;;;;;;;8.90;4.28;;;17.60;99.90;;;;;;4962385;28;20587;-80
2023/09/30 09:50:29;;;;;;;7.05;3.83;;;17.50;99.90;;;;;;4963620;28;20211;-80
2023/09/30 09:52:58;;;;;;;7.13;3.30;;;17.70;99.90;;;;;;4966682;28;20189;-80
2023/09/30 09:55:27;;;;;;;10.20;3.90;;;17.80;99.90;;;;;;4953731;28;20202;-80
2023/09/30 09:57:55;;;;;;;9.38;4.38;;;17.70;99.90;;;;;;4954910;28;20217;-80
2023/09/30 10:00:27;;;;;;;9.10;4.53;;;17.70;99.90;;;;;;4958649;28;20537;-80
2023/09/30 10:02:54;;;;;;;7.22;3.75;;;17.70;99.90;;;;;;4961668;28;20545;-80
2023/09/30 10:05:22;;;;;;;6.90;3.78;;;17.80;99.90;;;;;;4952770;28;20579;-80
2023/09/30 10:07:55;;;;;;;7.13;3.80;;;17.80;99.90;;;;;;4955460;28;20241;-80
2023/09/30 10:10:36;;;;;;;6.80;3.78;;;18.10;99.90;;;;;;4964403;28;20200;-79
2023/09/30 10:13:05;;;;;;;7.22;3.97;;;18.20;99.90;;;;;;4960896;28;20193;-80
2023/09/30 10:15:40;;;;;;;7.80;4.10;;;18.20;99.90;;;;;;4957115;28;20202;-80
2023/09/30 10:18:10;;;;;;;7.35;4.15;;;18.20;99.90;;;;;;4950465;28;20559;-80
2023/09/30 10:20:49;;;;;;;7.53;4.18;;;18.00;99.90;;;;;;4950678;28;20236;-80
2023/09/30 10:23:20;;;;;;;6.90;3.92;;;17.90;99.90;;;;;;4956317;28;20232;-80
2023/09/30 10:25:49;;;;;;;6.95;4.28;;;17.80;99.90;;;;;;4962307;28;20206;-79
2023/09/30 10:28:37;;;;;;;5.97;3.63;;;17.80;99.90;;;;;;4957126;28;20209;-79
2023/09/30 10:31:15;;;;;;;8.45;4.43;;;17.80;99.90;;;;;;4953407;28;20706;-81
2023/09/30 10:34:21;;;;;;;5.35;3.88;;;17.90;99.90;;;;;;4951360;28;20205;-79
2023/09/30 10:36:50;;;;;;;4.45;3.17;;;18.10;99.90;;;;;;4961147;28;20213;-80
2023/09/30 10:39:58;;;;;;;10.13;3.58;;;18.10;99.90;;;;;;4963695;28;20684;-80
2023/09/30 10:42:45;;;;;;;5.82;3.65;;;18.10;99.90;;;;;;4965926;28;20230;-80
2023/09/30 10:45:46;;;;;;;8.85;3.72;;;18.20;99.90;;;;;;4959623;28;20203;-80
2023/09/30 10:48:35;;;;;;;8.48;3.40;;;18.50;99.90;;;;;;4964489;28;20196;-80
2023/09/30 10:51:11;;;;;;;7.75;4.13;;;18.80;99.90;;;;;;4952928;28;20565;-80
2023/09/30 10:53:45;;;;;;;7.22;3.72;;;18.80;99.90;;;;;;4963290;28;20200;-80
2023/09/30 10:56:12;;;;;;;6.05;4.00;;;18.80;99.90;;;;;;4979335;28;20525;-80
2023/09/30 10:58:41;;;;;;;6.22;3.35;;;18.80;99.90;;;;;;4964583;28;20212;-80
2023/09/30 11:01:09;;;;;;;7.20;3.88;;;19.20;99.90;;;;;;4968284;28;20233;-80
2023/09/30 11:03:37;;;;;;;6.35;3.50;;;19.30;99.90;;;;;;4956335;28;20197;-79
2023/09/30 11:06:05;;;;;;;6.32;3.65;;;19.40;99.90;;;;;;4965267;28;20201;-79
2023/09/30 11:08:34;;;;;;;7.97;2.92;;;19.20;99.90;;;;;;4964962;28;20576;-80
2023/09/30 11:11:02;;;;;;;4.43;2.58;;;19.30;99.90;;;;;;4966446;28;20228;-80
2023/09/30 11:13:35;;;;;;;4.28;3.28;;;19.20;99.90;;;;;;4967982;28;20204;-80
2023/09/30 11:16:04;;;;;;;6.80;3.00;;;19.10;99.90;;;;;;4967524;28;20546;-80
2023/09/30 11:18:32;;;;;;;6.43;2.90;;;19.60;99.90;;;;;;4968082;28;20197;-80
2023/09/30 11:21:09;;;;;;;6.20;3.05;;;19.40;99.90;;;;;;4960518;28;20222;-80
2023/09/30 11:23:37;;;;;;;5.07;2.38;;;19.60;99.90;;;;;;4962256;28;20205;-80
2023/09/30 11:26:06;;;;;;;6.18;2.13;;;19.70;99.40;;;;;;4966262;28;20201;-80
2023/09/30 11:28:39;;;;;;;3.55;2.10;;;20.10;97.10;;;;;;4956660;28;20202;-80
2023/09/30 11:31:10;;;;;;;4.03;1.77;;;19.90;93.40;;;;;;4964960;28;20233;-80
2023/09/30 11:33:52;;;;;;;4.95;2.55;;;20.10;93.90;;;;;;4958345;28;20193;-80
2023/09/30 11:36:22;;;;;;;5.35;2.60;;;20.20;95.70;;;;;;4959000;28;20263;-80
2023/09/30 11:38:52;;;;;;;5.45;2.53;;;20.10;96.30;;;;;;4960911;28;20205;-79
2023/09/30 11:41:21;;;;;;;6.57;2.83;;;20.40;96.40;;;;;;4958130;28;20247;-80
2023/09/30 11:44:09;;;;;;;7.22;3.10;;;20.20;97.50;;;;;;4962631;28;20194;-79
2023/09/30 11:46:53;;;;;;;5.75;1.90;;;19.80;97.60;;;;;;4961666;28;20205;-79
2023/09/30 11:49:29;;;;;;;3.88;2.15;;;20.10;94.30;;;;;;4968115;28;20202;-80
2023/09/30 11:51:59;;;;;;;3.97;2.25;;;21.00;93.10;;;;;;4962913;28;20686;-80
2023/09/30 11:54:31;;;;;;;4.90;1.98;;;20.90;92.10;;;;;;4957165;28;20208;-80
2023/09/30 11:56:59;;;;;;;4.22;2.10;;;20.80;92.10;;;;;;4955036;28;20206;-80
2023/09/30 11:59:27;;;;;;;5.32;2.00;;;21.20;91.40;;;;;;4962117;28;20224;-80
2023/09/30 12:01:54;;;;;;;2.83;1.70;;;20.80;90.60;;;;;;4963608;28;20243;-80
2023/09/30 12:04:21;;;;;;;4.55;2.55;;;19.90;92.10;;;;;;4960982;28;20410;-80
2023/09/30 12:06:49;;;;;;;4.20;2.20;;;19.40;92.70;;;;;;4967006;28;20558;-80
2023/09/30 12:09:25;;;;;;;3.40;2.22;;;19.90;93.70;;;;;;4963681;28;20208;-80
2023/09/30 12:11:53;;;;;;;3.25;2.22;;;19.90;93.10;;;;;;4963313;28;20561;-80
2023/09/30 12:14:21;;;;;;;4.65;2.45;;;19.90;94.30;;;;;;4962914;28;20209;-80
2023/09/30 12:16:49;;;;;;;4.10;2.40;;;19.50;95.40;;;;;;4967388;28;20198;-80
2023/09/30 12:19:18;;;;;;;3.65;2.28;;;19.60;95.60;;;;;;4952544;28;20225;-80
2023/09/30 12:21:47;;;;;;;4.85;2.22;;;19.90;95.70;;;;;;4952370;28;20594;-80
2023/09/30 12:24:17;;;;;;;5.28;2.80;;;20.00;95.90;;;;;;4953855;28;20208;-80
2023/09/30 12:26:48;;;;;;;6.75;3.35;;;19.70;96.30;;;;;;4955052;28;20675;-80
2023/09/30 12:29:16;;;;;;;5.53;2.97;;;19.60;96.80;;;;;;4953021;28;20198;-80
2023/09/30 12:31:44;;;;;;;4.47;2.28;;;20.00;97.10;;;;;;4955595;28;20578;-80
2023/09/30 12:34:13;;;;;;;5.32;2.65;;;20.00;96.30;;;;;;4961023;28;20202;-80
2023/09/30 12:36:52;;;;;;;6.28;3.40;;;19.80;95.60;;;;;;4967373;28;20205;-80
2023/09/30 12:39:30;;;;;;;4.60;2.78;;;19.70;97.00;;;;;;4960554;28;20213;-80
2023/09/30 12:41:59;;;;;;;4.85;2.42;;;20.10;96.60;;;;;;4967380;28;20224;-80
2023/09/30 12:44:26;;;;;;;4.80;3.00;;;20.10;95.90;;;;;;4958809;28;20218;-79
2023/09/30 12:46:58;;;;;;;6.45;2.95;;;20.40;95.90;;;;;;4966672;28;20233;-80
2023/09/30 12:49:25;;;;;;;7.53;3.55;;;20.70;94.60;;;;;;4953201;28;20217;-80
2023/09/30 12:51:53;;;;;;;6.55;3.05;;;21.20;94.00;;;;;;4963068;28;20706;-79
2023/09/30 12:54:20;;;;;;;5.97;3.63;;;21.00;94.30;;;;;;4962452;28;20201;-80